Terminal Aerodrome Forecast
Issued by NWS

Home | Current Version | Previous Version | Text Only | Print | Product List | Glossary On
Versions: 1 2 3 4 5 6 7 8 9 10 11 12 13 14 15 16 17
000
FTUS45 KABQ 141100
TAFSAF
TAF
KSAF 141138Z 1412/1512 01009KT P6SM SCT090 BKN120
     FM141900 21007KT P6SM VCTS SCT070CB BKN100
      TEMPO 1420/1423 5SM -TSRA BKN060CB OVC100
     FM150100 12011KT P6SM VCSH SCT050 BKN080
     FM150600 12014G22KT P6SM BKN060=

USA.gov is the U.S. government's official web portal to all federal, state and local government web resources and services.